Time;durP1;ratioP1;P1;durP2;ratioP2;P2;SDS_P1;SDS_P2;PMS_P1;PMS_P2;Temp;Humidity;BMP_temperature;BMP_pressure;BME280_temperature;BME280_humidity;BME280_pressure;Samples;Min_cycle;Max_cycle;Signal;HPM_P1;HPM_P2
2023/06/27 00:00:12;;;;;;;8.15;4.95;;;;;;;21.48;61.23;99616.12;4461505;32;33784;-72
2023/06/27 00:02:40;;;;;;;7.90;4.72;;;;;;;21.72;59.90;99623.09;4468253;32;32777;-71
2023/06/27 00:05:08;;;;;;;8.15;4.72;;;;;;;21.65;60.25;99618.72;4470083;32;33639;-72
2023/06/27 00:07:36;;;;;;;8.13;4.50;;;;;;;21.52;60.44;99612.63;4475963;32;34432;-71
2023/06/27 00:10:04;;;;;;;7.32;4.85;;;;;;;21.40;60.84;99617.00;4476364;32;33842;-67
2023/06/27 00:12:32;;;;;;;7.97;4.70;;;;;;;21.41;61.08;99621.38;4477530;32;33872;-69
2023/06/27 00:14:59;;;;;;;6.97;4.45;;;;;;;21.29;61.11;99624.06;4470549;32;33829;-68
2023/06/27 00:17:27;;;;;;;7.17;4.47;;;;;;;21.49;60.12;99623.16;4455511;32;33754;-69
2023/06/27 00:19:58;;;;;;;7.07;4.97;;;;;;;21.41;59.81;99628.41;4477296;32;34352;-69
2023/06/27 00:22:26;;;;;;;7.82;4.95;;;;;;;20.99;61.77;99620.56;4463419;32;32846;-70
2023/06/27 00:24:54;;;;;;;7.90;4.57;;;;;;;21.18;60.82;99618.78;4470456;32;33744;-69
2023/06/27 00:27:21;;;;;;;8.60;5.05;;;;;;;21.31;60.70;99629.31;4480430;32;33439;-69
2023/06/27 00:29:49;;;;;;;7.35;4.80;;;;;;;21.44;60.37;99627.56;4478082;32;33370;-68
2023/06/27 00:32:16;;;;;;;7.40;4.60;;;;;;;21.37;60.55;99624.91;4474454;32;33426;-70
2023/06/27 00:34:44;;;;;;;7.15;4.80;;;;;;;21.10;61.70;99628.47;4479140;32;33722;-69
2023/06/27 00:37:11;;;;;;;8.17;4.70;;;;;;;21.63;59.99;99631.91;4476408;32;33687;-69
2023/06/27 00:39:40;;;;;;;7.50;4.70;;;;;;;21.40;60.38;99638.09;4471642;32;34382;-68
2023/06/27 00:42:08;;;;;;;7.70;4.65;;;;;;;21.13;61.54;99624.94;4475527;32;33079;-69
2023/06/27 00:44:36;;;;;;;7.50;4.68;;;;;;;21.13;61.47;99630.22;4477316;32;34277;-69
2023/06/27 00:47:05;;;;;;;7.40;4.70;;;;;;;20.94;62.72;99634.63;4477975;32;33679;-70
2023/06/27 00:49:33;;;;;;;7.22;4.85;;;;;;;21.32;61.10;99631.94;4457136;32;33881;-68
2023/06/27 00:52:01;;;;;;;7.70;4.60;;;;;;;20.88;62.72;99631.97;4476308;32;33061;-69
2023/06/27 00:54:29;;;;;;;8.00;4.55;;;;;;;21.10;61.56;99619.69;4462601;32;33413;-69
2023/06/27 00:56:57;;;;;;;7.50;4.75;;;;;;;21.25;61.17;99619.69;4468916;32;33676;-67
2023/06/27 00:59:25;;;;;;;7.75;4.90;;;;;;;21.16;61.51;99617.91;4473809;32;33566;-67
2023/06/27 01:01:53;;;;;;;7.47;4.70;;;;;;;21.20;61.36;99616.16;4477178;32;33328;-68
2023/06/27 01:04:20;;;;;;;8.95;5.55;;;;;;;21.49;60.05;99617.91;4475392;32;34621;-70
2023/06/27 01:07:09;;;;;;;8.00;5.03;;;;;;;21.55;59.57;99618.75;4462973;32;33475;-69
2023/06/27 01:09:43;;;;;;;8.23;5.18;;;;;;;21.19;61.03;99619.69;4466509;32;33040;-68
2023/06/27 01:12:31;;;;;;;8.25;5.05;;;;;;;21.57;59.07;99619.63;4475147;32;32618;-70
2023/06/27 01:14:59;;;;;;;7.35;5.05;;;;;;;21.35;60.53;99618.78;4473666;32;33064;-70
2023/06/27 01:17:28;;;;;;;7.62;4.95;;;;;;;21.37;60.52;99609.09;4467459;32;33755;-70
2023/06/27 01:19:56;;;;;;;6.73;4.93;;;;;;;21.02;61.48;99604.78;4460781;32;34128;-70
2023/06/27 01:22:35;;;;;;;7.47;5.10;;;;;;;21.54;59.24;99600.31;4466863;32;33261;-70
2023/06/27 01:25:07;;;;;;;7.25;4.60;;;;;;;21.35;60.15;99595.06;4467677;32;32832;-70
2023/06/27 01:27:36;;;;;;;8.27;4.95;;;;;;;21.04;61.43;99598.63;4474295;32;33350;-68
2023/06/27 01:30:04;;;;;;;8.10;4.97;;;;;;;21.16;60.93;99588.06;4469709;32;34331;-71
2023/06/27 01:32:46;;;;;;;8.13;4.90;;;;;;;21.13;61.22;99582.81;4476938;32;32169;-69
2023/06/27 01:35:40;;;;;;;8.60;5.18;;;;;;;20.95;62.31;99581.06;4477336;32;31795;-68
2023/06/27 01:38:17;;;;;;;8.07;4.60;;;;;;;20.55;63.34;99581.94;4464398;32;32835;-71
2023/06/27 01:40:45;;;;;;;7.45;4.65;;;;;;;20.65;63.34;99579.31;4468181;32;33158;-70
2023/06/27 01:43:13;;;;;;;7.10;4.80;;;;;;;20.81;62.25;99575.81;4469345;32;32837;-69
2023/06/27 01:45:41;;;;;;;8.43;4.87;;;;;;;21.01;61.29;99581.06;4463163;32;34596;-68
2023/06/27 01:48:11;;;;;;;7.50;4.80;;;;;;;20.74;62.61;99574.06;4464906;32;36063;-69
2023/06/27 01:50:38;;;;;;;7.97;5.18;;;;;;;20.61;63.62;99587.22;4464071;32;33527;-68
2023/06/27 01:53:06;;;;;;;7.90;4.87;;;;;;;20.66;63.04;99575.81;4470632;32;33812;-69
2023/06/27 01:55:33;;;;;;;7.97;4.85;;;;;;;20.88;62.05;99569.69;4475200;32;34690;-70
2023/06/27 01:58:01;;;;;;;6.75;4.70;;;;;;;20.73;62.19;99572.31;4475172;32;33801;-69
2023/06/27 02:00:29;;;;;;;7.45;4.50;;;;;;;20.85;61.96;99569.69;4479056;32;33690;-71
2023/06/27 02:02:57;;;;;;;8.27;5.20;;;;;;;20.93;61.39;99570.53;4476994;32;32742;-69
2023/06/27 02:05:25;;;;;;;8.95;5.00;;;;;;;21.08;61.23;99580.19;4472162;32;34525;-70
2023/06/27 02:07:52;;;;;;;7.63;4.73;;;;;;;20.91;61.66;99569.66;4468821;32;33510;-70
2023/06/27 02:10:21;;;;;;;6.97;4.77;;;;;;;20.67;63.08;99572.31;4457954;32;34368;-68
2023/06/27 02:12:48;;;;;;;7.03;4.80;;;;;;;20.99;61.25;99575.78;4479320;32;33957;-68
2023/06/27 02:15:16;;;;;;;7.82;5.03;;;;;;;20.83;62.22;99574.06;4473659;32;34418;-70
2023/06/27 02:17:44;;;;;;;7.85;5.12;;;;;;;20.80;61.92;99574.06;4479041;32;34608;-70
2023/06/27 02:20:12;;;;;;;9.80;5.30;;;;;;;21.00;61.27;99574.94;4475889;32;33642;-70
2023/06/27 02:22:39;;;;;;;7.00;4.70;;;;;;;20.86;62.03;99574.09;4468222;32;33515;-69
2023/06/27 02:25:07;;;;;;;8.50;4.97;;;;;;;20.86;61.73;99571.44;4473739;32;33784;-69
2023/06/27 02:27:35;;;;;;;10.07;5.15;;;;;;;20.91;61.92;99567.03;4479938;32;34414;-69
2023/06/27 02:30:03;;;;;;;8.40;5.10;;;;;;;20.78;62.32;99562.66;4476759;32;33319;-69
2023/06/27 02:32:30;;;;;;;8.50;4.90;;;;;;;20.97;61.91;99555.62;4474165;32;32950;-69
2023/06/27 02:34:58;;;;;;;9.05;5.05;;;;;;;21.09;60.98;99554.72;4481491;32;33642;-69
2023/06/27 02:37:25;;;;;;;9.15;4.68;;;;;;;21.23;60.52;99549.41;4468403;32;34583;-69
2023/06/27 02:39:54;;;;;;;7.47;4.90;;;;;;;21.41;59.67;99546.75;4468599;32;34309;-68
2023/06/27 02:42:22;;;;;;;7.15;4.78;;;;;;;21.09;60.54;99545.06;4474495;32;33083;-69
2023/06/27 02:44:49;;;;;;;8.20;5.00;;;;;;;21.16;60.13;99535.41;4480193;32;33841;-68
2023/06/27 02:47:19;;;;;;;7.55;4.97;;;;;;;21.00;61.05;99530.16;4454156;32;33145;-69
2023/06/27 02:49:46;;;;;;;7.78;4.75;;;;;;;20.70;62.32;99535.47;4473555;32;33493;-68
2023/06/27 02:52:14;;;;;;;8.15;4.97;;;;;;;20.92;61.54;99536.31;4475870;32;33304;-69
2023/06/27 02:54:41;;;;;;;7.57;5.03;;;;;;;20.87;61.85;99528.44;4481808;32;33380;-68
2023/06/27 02:57:10;;;;;;;8.85;5.32;;;;;;;20.97;61.57;99530.16;4470954;32;33621;-69
2023/06/27 02:59:38;;;;;;;6.53;4.50;;;;;;;20.73;62.63;99536.34;4479771;32;34239;-68
2023/06/27 03:02:06;;;;;;;7.82;4.53;;;;;;;21.18;60.48;99560.84;4478529;32;33185;-68
2023/06/27 03:04:36;;;;;;;8.13;4.62;;;;;;;20.96;61.24;99560.03;4473886;32;33346;-68
2023/06/27 03:07:04;;;;;;;8.73;4.90;;;;;;;21.30;60.02;99562.56;4481419;32;34436;-69
2023/06/27 03:09:32;;;;;;;7.37;4.72;;;;;;;21.28;59.53;99566.97;4458072;32;34231;-69
2023/06/27 03:12:00;;;;;;;8.95;4.97;;;;;;;21.21;59.13;99566.13;4477349;32;33465;-69
2023/06/27 03:14:28;;;;;;;7.78;4.70;;;;;;;20.98;60.61;99558.25;4478042;32;34564;-69
2023/06/27 03:16:57;;;;;;;7.83;4.60;;;;;;;20.66;62.63;99560.91;4481756;32;34056;-69
2023/06/27 03:19:25;;;;;;;7.90;4.78;;;;;;;20.85;61.97;99556.50;4468380;32;33776;-68
2023/06/27 03:22:09;;;;;;;7.97;5.12;;;;;;;20.92;61.65;99547.75;4474872;32;33349;-69
2023/06/27 03:24:36;;;;;;;7.37;4.80;;;;;;;21.05;60.78;99550.34;4475525;32;33784;-69
2023/06/27 03:27:04;;;;;;;7.72;4.62;;;;;;;20.84;61.13;99549.47;4467996;32;33774;-69
2023/06/27 03:29:32;;;;;;;7.15;4.50;;;;;;;20.77;61.74;99553.88;4471420;32;33926;-68
2023/06/27 03:32:00;;;;;;;9.60;4.93;;;;;;;20.50;63.37;99554.75;4478842;32;33977;-69
2023/06/27 03:34:28;;;;;;;7.60;4.60;;;;;;;20.61;63.06;99552.16;4482894;32;33863;-68
2023/06/27 03:36:55;;;;;;;7.72;4.72;;;;;;;20.69;62.71;99549.53;4471143;32;34626;-69
2023/06/27 03:39:24;;;;;;;8.95;4.80;;;;;;;20.71;62.78;99547.75;4478675;32;33432;-69
2023/06/27 03:41:51;;;;;;;8.65;5.00;;;;;;;21.01;61.74;99552.09;4467794;32;34557;-69
2023/06/27 03:44:20;;;;;;;8.27;4.72;;;;;;;20.72;62.82;99534.56;4470206;32;33570;-68
2023/06/27 03:46:49;;;;;;;7.70;4.40;;;;;;;20.83;62.46;99545.09;4473048;32;34372;-69
2023/06/27 03:49:16;;;;;;;8.13;4.70;;;;;;;20.91;62.44;99529.31;4468600;32;33921;-69
2023/06/27 03:51:44;;;;;;;8.85;5.12;;;;;;;20.81;62.62;99528.44;4472305;32;33151;-69
2023/06/27 03:54:12;;;;;;;8.30;4.70;;;;;;;20.88;62.59;99535.47;4467695;32;34452;-69
2023/06/27 03:56:39;;;;;;;7.85;4.55;;;;;;;21.08;61.95;99538.06;4472344;32;34176;-69
2023/06/27 03:59:07;;;;;;;8.32;4.82;;;;;;;21.00;62.48;99545.09;4467421;32;33638;-68
2023/06/27 04:01:34;;;;;;;9.05;4.97;;;;;;;21.35;60.72;99547.62;4478115;32;34007;-68
2023/06/27 04:04:02;;;;;;;7.72;4.70;;;;;;;21.55;59.90;99533.53;4478882;32;34337;-69
2023/06/27 04:06:30;;;;;;;8.13;4.78;;;;;;;20.85;62.94;99538.09;4473821;32;33905;-68
2023/06/27 04:08:57;;;;;;;7.18;4.57;;;;;;;21.32;61.08;99536.22;4480598;32;33368;-69
2023/06/27 04:11:26;;;;;;;8.32;4.50;;;;;;;21.39;60.94;99533.56;4473942;32;33941;-70
2023/06/27 04:14:02;;;;;;;8.70;5.10;;;;;;;21.40;61.01;99535.34;4479071;32;33662;-69
2023/06/27 04:16:30;;;;;;;8.00;4.82;;;;;;;21.45;60.27;99534.47;4442659;32;33729;-69
2023/06/27 04:18:57;;;;;;;8.40;4.80;;;;;;;21.83;59.21;99543.94;4462323;32;32999;-69
2023/06/27 04:21:26;;;;;;;9.35;5.20;;;;;;;21.75;58.95;99558.06;4475077;32;33235;-69
2023/06/27 04:23:56;;;;;;;11.63;4.80;;;;;;;22.06;58.18;99568.47;4475559;32;33667;-68
2023/06/27 04:26:25;;;;;;;8.13;4.87;;;;;;;22.10;58.08;99564.03;4476248;32;33711;-70
2023/06/27 04:28:55;;;;;;;8.60;4.82;;;;;;;22.49;55.97;99555.00;4478052;32;33432;-69
2023/06/27 04:31:22;;;;;;;8.45;4.55;;;;;;;22.12;57.99;99568.41;4472046;32;33033;-69
2023/06/27 04:33:55;;;;;;;8.87;4.97;;;;;;;21.86;58.39;99559.75;4473561;32;33611;-69
2023/06/27 04:36:24;;;;;;;8.02;4.35;;;;;;;21.94;57.76;99556.22;4463750;32;33350;-69
2023/06/27 04:38:52;;;;;;;9.23;4.65;;;;;;;21.91;57.62;99564.13;4470978;32;33189;-68
2023/06/27 04:41:19;;;;;;;8.23;4.35;;;;;;;22.18;56.90;99557.81;4480006;32;32865;-69
2023/06/27 04:43:47;;;;;;;11.02;5.10;;;;;;;21.86;57.87;99565.03;4477397;32;34007;-68
2023/06/27 04:46:15;;;;;;;8.32;4.47;;;;;;;22.24;57.13;99570.09;4467194;32;33865;-68
2023/06/27 04:48:42;;;;;;;9.18;4.80;;;;;;;22.51;56.54;99571.69;4468374;32;34156;-69
2023/06/27 04:51:10;;;;;;;9.63;4.82;;;;;;;22.82;55.63;99574.09;4479802;32;32909;-70
2023/06/27 04:53:38;;;;;;;10.05;5.15;;;;;;;22.70;56.41;99566.28;4477499;32;34584;-71
2023/06/27 04:56:05;;;;;;;8.97;5.30;;;;;;;22.61;58.11;99561.94;4474019;32;33809;-71
2023/06/27 04:58:35;;;;;;;10.05;5.43;;;;;;;22.38;60.45;99570.91;4467194;32;33896;-72
2023/06/27 05:01:02;;;;;;;10.15;5.60;;;;;;;22.06;62.73;99570.19;4472585;32;33311;-72
2023/06/27 05:03:30;;;;;;;11.10;6.07;;;;;;;22.24;63.31;99566.59;4469371;32;34337;-73
2023/06/27 05:05:58;;;;;;;12.80;6.10;;;;;;;22.11;64.60;99553.47;4461364;32;33208;-72
2023/06/27 05:08:25;;;;;;;11.07;6.00;;;;;;;22.34;64.13;99544.56;4472897;32;33772;-71
2023/06/27 05:10:53;;;;;;;10.10;6.10;;;;;;;22.41;64.31;99542.72;4469510;32;33978;-72
2023/06/27 05:13:20;;;;;;;13.07;6.40;;;;;;;22.31;65.41;99552.47;4471863;32;33780;-72
2023/06/27 05:15:48;;;;;;;10.52;6.12;;;;;;;22.34;66.09;99552.47;4471990;32;34573;-70
2023/06/27 05:18:17;;;;;;;10.68;6.18;;;;;;;22.28;66.63;99542.84;4475012;32;34185;-69
2023/06/27 05:20:47;;;;;;;11.37;6.37;;;;;;;22.48;66.33;99555.88;4476802;32;33950;-71
2023/06/27 05:23:14;;;;;;;11.80;5.93;;;;;;;22.62;67.29;99549.59;4479015;32;34247;-70
2023/06/27 05:25:43;;;;;;;11.65;6.25;;;;;;;22.49;67.64;99568.19;4454597;32;32261;-70
2023/06/27 05:28:10;;;;;;;10.70;6.28;;;;;;;22.61;67.87;99567.22;4470813;32;33646;-69
2023/06/27 05:30:39;;;;;;;10.30;6.28;;;;;;;22.82;67.46;99566.16;4464147;32;31940;-69
2023/06/27 05:33:06;;;;;;;13.27;6.93;;;;;;;22.73;68.30;99571.53;4467932;32;33663;-70
2023/06/27 05:35:34;;;;;;;9.88;6.87;;;;;;;22.77;68.58;99562.69;4475299;32;33487;-70
2023/06/27 05:38:01;;;;;;;11.30;7.10;;;;;;;22.85;68.82;99558.22;4477136;32;33513;-69
2023/06/27 05:40:30;;;;;;;9.93;7.53;;;;;;;23.27;66.02;99557.84;4473373;32;33808;-69
2023/06/27 05:42:58;;;;;;;9.43;7.32;;;;;;;23.38;65.53;99566.53;4481801;32;34599;-69
2023/06/27 05:45:25;;;;;;;10.20;7.80;;;;;;;23.48;64.96;99567.28;4455017;32;34353;-70
2023/06/27 05:47:53;;;;;;;10.43;7.40;;;;;;;23.44;65.57;99570.88;4454677;32;32338;-69
2023/06/27 05:50:20;;;;;;;10.45;7.87;;;;;;;23.61;65.83;99574.19;4470554;32;33999;-70
2023/06/27 05:52:48;;;;;;;12.32;8.43;;;;;;;24.07;63.18;99581.56;4466235;32;34609;-70
2023/06/27 05:55:34;;;;;;;12.68;7.85;;;;;;;24.09;62.70;99577.13;4474191;32;33048;-69
2023/06/27 05:58:02;;;;;;;12.18;8.65;;;;;;;23.95;63.50;99581.72;4468770;32;34153;-69
2023/06/27 06:00:30;;;;;;;11.30;8.30;;;;;;;24.03;63.43;99574.56;4479261;32;33221;-69
2023/06/27 06:02:57;;;;;;;11.50;8.97;;;;;;;24.30;62.71;99565.34;4481600;32;34225;-69
2023/06/27 06:05:25;;;;;;;12.23;9.02;;;;;;;24.04;63.89;99559.56;4469319;32;34480;-70
2023/06/27 06:07:52;;;;;;;12.85;9.00;;;;;;;24.03;64.47;99566.63;4477303;32;33748;-70
2023/06/27 06:10:21;;;;;;;13.32;8.90;;;;;;;24.12;64.62;99560.31;4481579;32;33196;-70
2023/06/27 06:12:49;;;;;;;12.70;9.37;;;;;;;23.89;66.00;99558.00;4477265;32;33739;-70
2023/06/27 06:15:17;;;;;;;12.60;9.90;;;;;;;24.52;64.75;99560.63;4474739;32;33840;-70
2023/06/27 06:17:45;;;;;;;13.23;9.80;;;;;;;24.83;63.01;99559.25;4473078;32;33697;-69
2023/06/27 06:20:13;;;;;;;13.27;9.45;;;;;;;24.58;64.41;99564.09;4475952;32;33268;-70
2023/06/27 06:22:40;;;;;;;12.98;10.02;;;;;;;24.97;63.40;99561.66;4468891;32;34529;-69
2023/06/27 06:25:08;;;;;;;12.13;9.68;;;;;;;24.96;64.15;99565.22;4473581;32;34748;-69
2023/06/27 06:27:36;;;;;;;12.70;10.25;;;;;;;25.11;63.42;99564.91;4470864;32;33727;-68
2023/06/27 06:30:04;;;;;;;12.10;9.43;;;;;;;25.25;63.42;99572.66;4472191;32;32932;-69
2023/06/27 06:32:31;;;;;;;12.32;9.43;;;;;;;25.04;64.53;99568.59;4456826;32;33424;-71
2023/06/27 06:35:03;;;;;;;12.48;9.68;;;;;;;25.29;62.89;99575.22;4480391;32;32713;-70
2023/06/27 06:37:31;;;;;;;11.70;9.52;;;;;;;25.33;62.93;99577.81;4473253;32;33518;-69
2023/06/27 06:39:59;;;;;;;11.00;9.63;;;;;;;25.19;62.96;99578.03;4469322;32;33839;-70
2023/06/27 06:42:26;;;;;;;12.98;9.48;;;;;;;25.46;62.38;99584.63;4475144;32;33583;-69
2023/06/27 06:44:54;;;;;;;11.10;9.45;;;;;;;25.11;63.59;99576.41;4475869;32;33702;-70
2023/06/27 06:47:22;;;;;;;13.43;9.10;;;;;;;25.42;62.32;99580.28;4471130;32;33331;-70
2023/06/27 06:49:49;;;;;;;11.57;9.70;;;;;;;25.38;61.66;99583.88;4476366;32;34238;-70
2023/06/27 06:52:17;;;;;;;12.60;9.55;;;;;;;25.37;61.78;99587.47;4480729;32;33343;-68
2023/06/27 06:54:44;;;;;;;12.10;9.25;;;;;;;25.43;61.37;99593.50;4477125;32;34691;-70
2023/06/27 06:57:12;;;;;;;12.20;9.30;;;;;;;25.41;61.62;99607.72;4481475;32;34064;-70
2023/06/27 06:59:40;;;;;;;11.18;8.35;;;;;;;25.07;62.31;99621.53;4480304;32;34235;-69
2023/06/27 07:02:07;;;;;;;11.23;8.77;;;;;;;24.83;61.95;99629.00;4480533;32;34265;-70
2023/06/27 07:04:35;;;;;;;10.63;8.17;;;;;;;25.25;60.94;99621.25;4478675;32;34626;-70
2023/06/27 07:07:03;;;;;;;11.20;8.60;;;;;;;25.14;61.35;99617.88;4471786;32;34337;-69
2023/06/27 07:09:30;;;;;;;14.90;8.98;;;;;;;25.15;61.36;99619.63;4479143;32;33866;-69
2023/06/27 07:11:58;;;;;;;12.43;9.13;;;;;;;24.97;62.09;99609.34;4474978;32;33594;-70
2023/06/27 07:14:26;;;;;;;12.68;8.85;;;;;;;25.09;61.75;99612.66;4469663;32;33678;-70
2023/06/27 07:16:53;;;;;;;11.90;8.87;;;;;;;25.21;62.08;99616.88;4477540;32;33934;-69
2023/06/27 07:19:21;;;;;;;12.18;8.95;;;;;;;25.39;60.79;99607.72;4470901;32;33204;-69
2023/06/27 07:21:49;;;;;;;12.95;9.07;;;;;;;25.26;61.68;99611.50;4464325;32;33880;-70
2023/06/27 07:24:17;;;;;;;11.65;8.75;;;;;;;25.60;61.48;99618.84;4476509;32;34436;-70
2023/06/27 07:26:44;;;;;;;11.02;8.77;;;;;;;25.33;62.16;99622.88;4475563;32;34447;-70
2023/06/27 07:29:12;;;;;;;13.90;8.68;;;;;;;25.43;62.04;99616.50;4474712;32;33560;-69
2023/06/27 07:31:40;;;;;;;11.18;8.90;;;;;;;25.76;60.89;99616.75;4480006;32;34094;-69
2023/06/27 07:34:07;;;;;;;11.23;8.47;;;;;;;25.72;60.92;99618.59;4479791;32;33519;-69
2023/06/27 07:36:35;;;;;;;10.97;8.60;;;;;;;25.74;60.66;99613.25;4478174;32;33479;-69
2023/06/27 07:39:03;;;;;;;13.55;8.50;;;;;;;25.78;60.40;99614.94;4454741;32;32802;-70
2023/06/27 07:41:32;;;;;;;10.48;8.35;;;;;;;25.43;60.91;99619.16;4458176;32;33981;-70
2023/06/27 07:44:00;;;;;;;11.27;8.65;;;;;;;25.62;60.96;99617.03;4474668;32;34448;-70
2023/06/27 07:46:27;;;;;;;11.50;8.60;;;;;;;25.83;59.49;99618.38;4475937;32;33173;-68
2023/06/27 07:48:59;;;;;;;10.93;8.48;;;;;;;25.92;59.72;99615.53;4472142;32;33009;-70
2023/06/27 07:51:27;;;;;;;11.80;7.97;;;;;;;26.02;59.31;99627.72;4458488;32;33242;-70
2023/06/27 07:53:56;;;;;;;11.65;8.60;;;;;;;25.83;59.46;99624.56;4459503;32;34552;-68
2023/06/27 07:56:24;;;;;;;11.85;8.52;;;;;;;26.03;59.76;99625.94;4477319;32;33937;-70
2023/06/27 07:58:52;;;;;;;10.65;8.50;;;;;;;26.12;59.49;99630.19;4481203;32;33256;-70
2023/06/27 08:01:20;;;;;;;10.45;8.45;;;;;;;26.05;59.43;99630.31;4470455;32;33598;-69
2023/06/27 08:03:48;;;;;;;12.93;8.60;;;;;;;26.01;60.09;99639.25;4481624;32;33956;-69
2023/06/27 08:06:15;;;;;;;10.83;8.00;;;;;;;25.90;59.35;99635.91;4474057;32;34391;-70
2023/06/27 08:08:43;;;;;;;10.60;8.57;;;;;;;26.15;59.19;99646.91;4472693;32;33278;-69
2023/06/27 08:11:11;;;;;;;11.00;8.20;;;;;;;26.16;59.29;99643.34;4469003;32;34331;-69
2023/06/27 08:13:41;;;;;;;10.27;8.65;;;;;;;25.92;60.23;99643.87;4483032;32;33650;-69
2023/06/27 08:16:09;;;;;;;12.68;8.80;;;;;;;26.06;58.80;99642.69;4477703;32;32613;-70
2023/06/27 08:18:37;;;;;;;10.50;8.32;;;;;;;26.12;58.70;99648.78;4475777;32;33548;-71
2023/06/27 08:21:05;;;;;;;12.70;8.45;;;;;;;26.04;58.84;99649.81;4469334;32;33633;-70
2023/06/27 08:23:32;;;;;;;10.23;8.67;;;;;;;26.05;58.01;99659.50;4470277;32;34221;-69
2023/06/27 08:26:00;;;;;;;11.20;8.63;;;;;;;26.04;57.95;99649.81;4476822;32;33609;-70
2023/06/27 08:28:27;;;;;;;11.63;8.75;;;;;;;26.11;57.59;99655.84;4467931;32;32887;-70
2023/06/27 08:30:56;;;;;;;11.57;7.80;;;;;;;26.05;57.79;99648.88;4481290;32;34501;-70
2023/06/27 08:33:25;;;;;;;10.95;8.40;;;;;;;25.79;58.61;99644.09;4476652;32;33720;-70
2023/06/27 08:35:52;;;;;;;10.43;8.60;;;;;;;25.68;59.02;99641.63;4473544;32;33436;-71
2023/06/27 08:38:22;;;;;;;11.12;8.68;;;;;;;25.91;58.42;99643.00;4482127;32;33030;-69
2023/06/27 08:40:54;;;;;;;10.95;8.32;;;;;;;25.82;58.68;99645.81;4471142;32;33514;-69
2023/06/27 08:43:23;;;;;;;11.98;8.90;;;;;;;25.88;58.77;99641.25;4481705;32;33170;-71
2023/06/27 08:45:59;;;;;;;10.20;8.13;;;;;;;25.91;58.67;99648.31;4482061;32;34272;-69
2023/06/27 08:48:27;;;;;;;11.65;8.55;;;;;;;26.11;58.12;99654.97;4475876;32;32669;-70
2023/06/27 08:50:57;;;;;;;10.40;8.75;;;;;;;26.12;58.04;99654.09;4477469;32;33610;-69
2023/06/27 08:53:27;;;;;;;11.63;8.63;;;;;;;25.97;58.87;99656.13;4453994;32;33762;-70
2023/06/27 08:56:10;;;;;;;11.77;8.65;;;;;;;26.00;58.68;99648.13;4471604;32;33655;-69
2023/06/27 08:58:50;;;;;;;15.68;9.30;;;;;;;25.72;59.77;99649.56;4476772;32;33518;-70
2023/06/27 09:01:18;;;;;;;10.82;8.57;;;;;;;26.12;58.90;99652.28;4474548;32;33542;-70
2023/06/27 09:03:46;;;;;;;11.63;8.70;;;;;;;26.01;59.38;99659.59;4467859;32;33448;-70
2023/06/27 09:06:14;;;;;;;12.18;8.38;;;;;;;26.01;59.38;99662.25;4473564;32;34070;-70
2023/06/27 09:08:42;;;;;;;11.52;8.43;;;;;;;26.07;59.41;99676.25;4464155;32;33364;-71
2023/06/27 09:11:10;;;;;;;12.35;8.60;;;;;;;25.98;60.27;99668.50;4465032;32;33809;-70
2023/06/27 09:13:38;;;;;;;10.60;9.00;;;;;;;25.99;60.27;99672.91;4475989;31;34655;-70
2023/06/27 09:16:06;;;;;;;11.45;8.88;;;;;;;26.01;60.33;99675.53;4472773;32;33784;-74
2023/06/27 09:18:35;;;;;;;11.43;8.48;;;;;;;26.20;60.22;99676.91;4466694;32;33133;-73
2023/06/27 09:21:03;;;;;;;10.55;8.25;;;;;;;26.42;58.08;99687.91;4471692;32;33441;-70
2023/06/27 09:23:31;;;;;;;10.98;8.30;;;;;;;26.68;57.00;99694.47;4472692;32;34075;-71
2023/06/27 09:26:12;;;;;;;12.10;8.82;;;;;;;26.72;56.08;99690.84;4475052;32;32865;-71
2023/06/27 09:28:51;;;;;;;12.35;7.87;;;;;;;26.64;56.26;99692.81;4461926;32;32529;-70
2023/06/27 09:31:20;;;;;;;11.60;8.70;;;;;;;26.42;56.90;99690.56;4466188;32;33636;-71
2023/06/27 09:33:48;;;;;;;11.10;8.65;;;;;;;26.63;56.70;99697.22;4476401;32;33799;-70
2023/06/27 09:36:31;;;;;;;9.98;8.30;;;;;;;26.66;56.53;99691.84;4459445;32;33186;-71
2023/06/27 09:39:03;;;;;;;10.73;8.50;;;;;;;26.93;56.13;99688.59;4480681;32;32406;-71
2023/06/27 09:41:44;;;;;;;9.45;8.23;;;;;;;27.05;55.46;99683.84;4470501;32;34355;-72
2023/06/27 09:44:15;;;;;;;12.60;8.60;;;;;;;27.08;55.41;99677.56;4468373;32;34498;-70
2023/06/27 09:46:43;;;;;;;10.30;8.30;;;;;;;27.11;55.60;99682.81;4475357;32;33503;-72
2023/06/27 09:49:12;;;;;;;10.10;8.20;;;;;;;27.18;56.05;99679.09;4470027;32;33240;-71
2023/06/27 09:51:40;;;;;;;10.65;8.32;;;;;;;27.29;55.99;99688.59;4478312;32;34407;-70
2023/06/27 09:54:07;;;;;;;11.23;7.90;;;;;;;27.58;55.10;99683.41;4469784;32;33636;-73
2023/06/27 09:56:35;;;;;;;10.27;7.43;;;;;;;27.42;54.81;99676.75;4473273;32;34703;-71
2023/06/27 09:59:11;;;;;;;10.73;8.07;;;;;;;27.68;53.16;99689.34;4469786;32;32980;-70
2023/06/27 10:01:59;;;;;;;8.98;7.62;;;;;;;27.65;53.63;99690.28;4450064;32;32514;-73
2023/06/27 10:04:27;;;;;;;9.80;7.80;;;;;;;27.77;52.89;99693.53;4469355;32;33815;-71
2023/06/27 10:06:57;;;;;;;10.43;7.87;;;;;;;27.78;52.84;99689.97;4481337;32;32460;-71
2023/06/27 10:09:25;;;;;;;9.32;7.22;;;;;;;27.69;53.13;99701.72;4478801;32;34280;-70
2023/06/27 10:11:52;;;;;;;9.82;7.70;;;;;;;27.87;52.53;99697.69;4479754;32;34209;-73
2023/06/27 10:14:21;;;;;;;12.37;7.75;;;;;;;28.09;52.02;99698.00;4472256;31;33567;-72
2023/06/27 10:16:49;;;;;;;10.57;7.53;;;;;;;28.21;52.39;99700.28;4482007;32;34526;-69
2023/06/27 10:19:17;;;;;;;10.15;7.40;;;;;;;28.07;51.65;99697.16;4465535;32;34111;-69
2023/06/27 10:21:44;;;;;;;8.63;7.00;;;;;;;28.07;51.45;99682.97;4461353;32;33523;-70
2023/06/27 10:24:12;;;;;;;10.65;7.37;;;;;;;28.19;51.63;99690.63;4477492;32;33840;-70
2023/06/27 10:26:41;;;;;;;9.45;6.82;;;;;;;28.24;51.91;99691.38;4459116;32;34387;-69
2023/06/27 10:29:15;;;;;;;9.27;6.87;;;;;;;28.09;50.47;99679.38;4448437;32;33760;-70
2023/06/27 10:31:49;;;;;;;8.55;6.20;;;;;;;28.24;48.22;99684.25;4478728;32;33689;-72
2023/06/27 10:34:18;;;;;;;10.02;5.72;;;;;;;28.09;47.58;99689.16;4473212;32;33401;-71
2023/06/27 10:36:51;;;;;;;7.78;5.68;;;;;;;27.80;47.86;99689.00;4470115;32;33672;-71
2023/06/27 10:39:31;;;;;;;8.18;5.60;;;;;;;27.82;48.03;99702.28;4469446;32;32870;-72
2023/06/27 10:42:19;;;;;;;7.60;5.50;;;;;;;27.82;47.93;99713.78;4476878;32;32814;-69
2023/06/27 10:44:56;;;;;;;8.88;5.82;;;;;;;27.42;48.65;99724.63;4461815;32;33741;-69
2023/06/27 10:47:25;;;;;;;9.73;5.30;;;;;;;27.38;49.34;99729.13;4472587;32;33001;-70
2023/06/27 10:50:01;;;;;;;9.57;5.50;;;;;;;27.65;48.47;99726.69;4471965;32;33996;-69
2023/06/27 10:52:28;;;;;;;8.97;5.40;;;;;;;27.34;49.22;99734.59;4460037;32;33997;-73
2023/06/27 10:55:15;;;;;;;7.85;5.53;;;;;;;27.42;49.38;99732.59;4480224;32;33456;-70
2023/06/27 10:57:44;;;;;;;7.93;5.18;;;;;;;27.32;49.75;99737.28;4470041;32;33125;-70
2023/06/27 11:00:13;;;;;;;6.60;4.78;;;;;;;27.24;50.06;99732.16;4476380;32;32850;-72
2023/06/27 11:02:45;;;;;;;7.70;5.23;;;;;;;27.31;48.59;99738.19;4473085;32;34483;-74
2023/06/27 11:05:17;;;;;;;7.12;5.20;;;;;;;27.15;49.66;99742.09;4463157;32;34052;-73
2023/06/27 11:07:56;;;;;;;6.68;5.03;;;;;;;27.16;49.93;99742.06;4473253;32;34165;-74
2023/06/27 11:10:26;;;;;;;7.32;5.30;;;;;;;27.32;49.21;99750.56;4456417;32;32652;-75
2023/06/27 11:13:27;;;;;;;8.20;5.20;;;;;;;27.07;49.48;99752.94;4473627;32;33574;-72
2023/06/27 11:15:55;;;;;;;7.87;5.60;;;;;;;27.01;48.79;99751.28;4436563;32;32804;-72
2023/06/27 11:18:25;;;;;;;7.30;5.25;;;;;;;26.80;49.28;99760.62;4472117;32;33373;-73
2023/06/27 11:20:54;;;;;;;8.40;5.43;;;;;;;26.79;49.75;99764.19;4464685;32;32263;-74
2023/06/27 11:23:22;;;;;;;8.18;5.25;;;;;;;26.65;50.66;99768.94;4467521;32;34182;-73
2023/06/27 11:25:49;;;;;;;8.48;5.53;;;;;;;26.90;50.26;99766.59;4478398;32;33762;-73
2023/06/27 11:28:18;;;;;;;7.93;5.70;;;;;;;26.93;50.63;99787.81;4470503;32;33595;-75
2023/06/27 11:30:47;;;;;;;10.35;5.75;;;;;;;26.92;51.41;99787.84;4452134;32;32505;-76
2023/06/27 11:33:16;;;;;;;7.55;5.62;;;;;;;26.73;52.38;99788.22;4480150;32;33681;-77
2023/06/27 11:35:44;;;;;;;8.05;6.30;;;;;;;26.61;53.10;99791.16;4467270;32;34232;-73
2023/06/27 11:38:12;;;;;;;10.13;6.65;;;;;;;26.44;53.91;99787.06;4463573;32;34221;-75